Aigburth, United Kingdom
Current Conditions -  °F | °C
As of 12:20 PM on Thursday 29 Jan 2015 (Local Time) from EGGP Reporting Station
Rain Showers Rain Showers  
Wind Chill: 27°   Ceiling: 1600
Heat Index: 36°   Visibility: 6mi
Dew Point: 36°   Wind: 13mph
Humidity: 100%   Direction: 260°W
Pressure: 28.91"   Gusts: NA
Location:  53.37°N, 2.93°W
Report Text: EGGP 291220Z 26011KT 9000 VCSH FEW008 BKN016 02/02 Q0979
Loading
Personal Weather Stations






























Interactive Weather Map New forecast layout! Learn more

10-Day Weather Forecast

Advertisements
Track Severe Weather on mobile